Parma — V2OZ9 — position and weather

sailwx.info

Track history (hours):
 
Tides and Currents Weather Stations Pressure Air Temp Water Temp Dewpoint Dewpoint Depression Visibility Wind Speed Wind Dir Waves Ship Positions

Parma

Last reported at 2014-Nov-22 09:33 UTC. Time now 2014-Nov-22 10:34 UTC.
Position N 37°03' W 009°37'.

MMSI: 279073176.

Date/timePositionNaut miles runAvg speedWind from/ knotsBaromVisibWave heightAir tempDewpointWater temp
2014-Nov-22 09:33N 37°03' W 009°37'11 9.4
2014-Nov-22 08:24N 37°13' W 009°40'8 9.5
2014-Nov-22 07:33N 37°21' W 009°42'10 9.7
2014-Nov-22 06:33N 37°30' W 009°45'10 9.5
2014-Nov-22 05:31N 37°40' W 009°48'9 9.4
2014-Nov-22 04:33N 37°49' W 009°50'10 9.4
2014-Nov-22 03:31N 37°58' W 009°53'14 9.5
2014-Nov-22 02:05N 38°12' W 009°57'15 9.3
2014-Nov-22 00:30N 38°26' W 010°01'  
2014-Nov-17 13:21N 50°35' E 000°17'8 9.8
2014-Nov-17 12:33N 50°37' E 000°28'10 9.9
2014-Nov-17 11:33N 50°42' E 000°42'10 9.7
2014-Nov-17 10:33N 50°47' E 000°55'20 8.8
2014-Nov-17 08:18N 50°60' E 001°19'6 8.2
2014-Nov-17 07:34N 51°04' E 001°27'9 8.6
2014-Nov-17 06:33N 51°09' E 001°37'9 9.5
2014-Nov-17 05:33N 51°16' E 001°48'1110.5
2014-Nov-17 04:33N 51°25' E 001°57'1110.9
2014-Nov-17 03:33N 51°33' E 002°08'1210.7
2014-Nov-17 02:28N 51°42' E 002°20'139 9.3
2014-Nov-16 11:33N 53°30' E 004°45'10 8.8
2014-Nov-16 10:27N 53°33' E 005°00'9 9.5
2014-Nov-16 09:33N 53°36' E 005°14'10 9.9
2014-Nov-16 08:33N 53°39' E 005°30'1010.1
2014-Nov-16 07:33N 53°42' E 005°46'1110.1
2014-Nov-16 06:25N 53°46' E 006°04'53 9.0
2014-Nov-16 00:32N 54°00' E 007°31'9 9.3
2014-Nov-15 23:33N 54°01' E 007°47'10 9.8
2014-Nov-15 22:33N 54°01' E 008°03'1010.0
2014-Nov-15 21:33N 53°60' E 008°20'1211.9
2014-Nov-15 20:34N 53°56' E 008°40'10 9.7
2014-Nov-15 19:33N 53°51' E 008°53'9 9.3
2014-Nov-15 18:33N 53°53' E 009°09'8 7.8
2014-Nov-15 17:32N 53°50' E 009°21'9 8.0
2014-Nov-15 16:24N 53°42' E 009°29'7 8.3
2014-Nov-15 15:33N 53°36' E 009°35'1010.5
2014-Nov-15 14:33N 53°33' E 009°52'4 4.0
2014-Nov-15 13:31N 53°30' E 009°57'0 0.0
2014-Nov-15 12:28N 53°30' E 009°57'0 0.0
2014-Nov-15 11:31N 53°30' E 009°57'0 0.0
2014-Nov-15 10:31N 53°30' E 009°57'0 0.0
2014-Nov-15 09:28N 53°30' E 009°57'0 0.0
2014-Nov-15 08:31N 53°30' E 009°57'0 0.0
2014-Nov-15 07:25N 53°30' E 009°57'0 0.0
2014-Nov-15 06:28N 53°30' E 009°57'0 0.0
2014-Nov-15 05:28N 53°30' E 009°57'0 0.0
2014-Nov-15 04:31N 53°30' E 009°57'0 0.0
2014-Nov-15 03:28N 53°30' E 009°57'0 0.0
2014-Nov-15 02:31N 53°30' E 009°57'0 0.0
2014-Nov-15 01:28N 53°30' E 009°57'0 0.0
2014-Nov-15 00:28N 53°30' E 009°57'0 0.0
2014-Nov-14 23:31N 53°30' E 009°57'0 0.0
2014-Nov-14 22:31N 53°30' E 009°57'0 0.0
2014-Nov-14 21:28N 53°30' E 009°57'0 0.0
2014-Nov-14 20:31N 53°30' E 009°57'0 0.0
2014-Nov-14 19:31N 53°30' E 009°57'0 0.0
2014-Nov-14 18:34N 53°30' E 009°57'7 6.9
2014-Nov-14 17:33N 53°33' E 009°47'1212.1
2014-Nov-14 16:33N 53°40' E 009°30'1313.0
2014-Nov-14 15:33N 53°51' E 009°18'1211.9
2014-Nov-14 14:33N 53°51' E 008°58'2211.2
2014-Nov-14 12:33N 53°59' E 008°23'1110.9
2014-Nov-14 11:32N 53°59' E 008°04'1111.1
2014-Nov-14 10:33N 53°56' E 007°46'3410.0
2014-Nov-14 07:08N 53°48' E 006°49'25 9.7
2014-Nov-14 04:31N 53°42' E 006°08'1010.4
2014-Nov-14 03:33N 53°38' E 005°52'1110.9
2014-Nov-14 02:33N 53°35' E 005°34'1111.2
2014-Nov-14 01:33N 53°32' E 005°16'1211.6
2014-Nov-14 00:33N 53°27' E 004°58'2511.7
2014-Nov-13 22:27N 53°09' E 004°31'1112.3
2014-Nov-13 21:33N 52°59' E 004°21'1312.5
2014-Nov-13 20:33N 52°48' E 004°12'1212.1
2014-Nov-13 19:33N 52°39' E 003°59'1312.4
2014-Nov-13 18:29N 52°26' E 003°54'1112.4
2014-Nov-13 17:33N 52°15' E 003°53'1212.1
2014-Nov-13 16:33N 52°03' E 003°55'1212.3
2014-Nov-13 15:33N 51°56' E 004°12'1111.1
2014-Nov-13 14:33N 51°50' E 004°27'9 9.4
2014-Nov-13 13:33N 51°43' E 004°37'2 1.8
2014-Nov-13 12:33N 51°42' E 004°35'0 0.0
2014-Nov-13 11:30N 51°42' E 004°35'0 0.0
2014-Nov-13 10:33N 51°42' E 004°35'0 0.0
2014-Nov-13 09:33N 51°42' E 004°35'0 0.0
2014-Nov-13 08:30N 51°42' E 004°35'0 0.0
2014-Nov-13 07:33N 51°42' E 004°35'0 0.0
2014-Nov-13 06:33N 51°42' E 004°35'0 0.0
2014-Nov-13 05:33N 51°42' E 004°35'0 0.0
2014-Nov-13 04:30N 51°42' E 004°35'0 0.0
2014-Nov-13 03:33N 51°42' E 004°35'0 0.0
2014-Nov-13 02:30N 51°42' E 004°35'0 0.0
2014-Nov-13 01:33N 51°42' E 004°35'0 0.0
2014-Nov-13 00:27N 51°42' E 004°35'0 0.0
2014-Nov-12 23:33N 51°42' E 004°35'0 0.0
2014-Nov-12 22:33N 51°42' E 004°35'0 0.0
2014-Nov-12 21:33N 51°42' E 004°35'0 0.0
2014-Nov-12 20:30N 51°42' E 004°35'0 0.0
2014-Nov-12 19:24N 51°42' E 004°35'0 0.0
2014-Nov-12 18:30N 51°42' E 004°35'0 0.0
2014-Nov-12 17:33N 51°42' E 004°35'0 0.0
2014-Nov-12 16:33N 51°42' E 004°35'0 0.0
2014-Nov-12 15:33N 51°42' E 004°35'0 0.0
2014-Nov-12 14:30N 51°42' E 004°35'0 0.0
2014-Nov-12 13:33N 51°42' E 004°35'0 0.0
2014-Nov-12 12:30N 51°42' E 004°35'0 0.0
2014-Nov-12 11:33N 51°42' E 004°35'0 0.0
2014-Nov-12 10:30N 51°42' E 004°35'  
Track history (hours):
 
Tides and Currents Weather Stations Pressure Air Temp Water Temp Dewpoint Dewpoint Depression Visibility Wind Speed Wind Dir Waves Ship Positions

Parma

Last reported at 2014-Nov-22 09:33 UTC. Time now 2014-Nov-22 10:34 UTC.
Position N 37°03' W 009°37'.

MMSI: 279073176.

Date/timePositionNaut miles runAvg speedWind from/ knotsBaromVisibWave heightAir tempDewpointWater temp
2014-Nov-22 09:33N 37°03' W 009°37'11 9.4
2014-Nov-22 08:24N 37°13' W 009°40'8 9.5
2014-Nov-22 07:33N 37°21' W 009°42'10 9.7
2014-Nov-22 06:33N 37°30' W 009°45'10 9.5
2014-Nov-22 05:31N 37°40' W 009°48'9 9.4
2014-Nov-22 04:33N 37°49' W 009°50'10 9.4
2014-Nov-22 03:31N 37°58' W 009°53'14 9.5
2014-Nov-22 02:05N 38°12' W 009°57'15 9.3
2014-Nov-22 00:30N 38°26' W 010°01'  
2014-Nov-17 13:21N 50°35' E 000°17'8 9.8
2014-Nov-17 12:33N 50°37' E 000°28'10 9.9
2014-Nov-17 11:33N 50°42' E 000°42'10 9.7
2014-Nov-17 10:33N 50°47' E 000°55'20 8.8
2014-Nov-17 08:18N 50°60' E 001°19'6 8.2
2014-Nov-17 07:34N 51°04' E 001°27'9 8.6
2014-Nov-17 06:33N 51°09' E 001°37'9 9.5
2014-Nov-17 05:33N 51°16' E 001°48'1110.5
2014-Nov-17 04:33N 51°25' E 001°57'1110.9
2014-Nov-17 03:33N 51°33' E 002°08'1210.7
2014-Nov-17 02:28N 51°42' E 002°20'139 9.3
2014-Nov-16 11:33N 53°30' E 004°45'10 8.8
2014-Nov-16 10:27N 53°33' E 005°00'9 9.5
2014-Nov-16 09:33N 53°36' E 005°14'10 9.9
2014-Nov-16 08:33N 53°39' E 005°30'1010.1
2014-Nov-16 07:33N 53°42' E 005°46'1110.1
2014-Nov-16 06:25N 53°46' E 006°04'53 9.0
2014-Nov-16 00:32N 54°00' E 007°31'9 9.3
2014-Nov-15 23:33N 54°01' E 007°47'10 9.8
2014-Nov-15 22:33N 54°01' E 008°03'1010.0
2014-Nov-15 21:33N 53°60' E 008°20'1211.9
2014-Nov-15 20:34N 53°56' E 008°40'10 9.7
2014-Nov-15 19:33N 53°51' E 008°53'9 9.3
2014-Nov-15 18:33N 53°53' E 009°09'8 7.8
2014-Nov-15 17:32N 53°50' E 009°21'9 8.0
2014-Nov-15 16:24N 53°42' E 009°29'7 8.3
2014-Nov-15 15:33N 53°36' E 009°35'1010.5
2014-Nov-15 14:33N 53°33' E 009°52'4 4.0
2014-Nov-15 13:31N 53°30' E 009°57'0 0.0
2014-Nov-15 12:28N 53°30' E 009°57'0 0.0
2014-Nov-15 11:31N 53°30' E 009°57'0 0.0
2014-Nov-15 10:31N 53°30' E 009°57'0 0.0
2014-Nov-15 09:28N 53°30' E 009°57'0 0.0
2014-Nov-15 08:31N 53°30' E 009°57'0 0.0
2014-Nov-15 07:25N 53°30' E 009°57'0 0.0
2014-Nov-15 06:28N 53°30' E 009°57'0 0.0
2014-Nov-15 05:28N 53°30' E 009°57'0 0.0
2014-Nov-15 04:31N 53°30' E 009°57'0 0.0
2014-Nov-15 03:28N 53°30' E 009°57'0 0.0
2014-Nov-15 02:31N 53°30' E 009°57'0 0.0
2014-Nov-15 01:28N 53°30' E 009°57'0 0.0
2014-Nov-15 00:28N 53°30' E 009°57'0 0.0
2014-Nov-14 23:31N 53°30' E 009°57'0 0.0
2014-Nov-14 22:31N 53°30' E 009°57'0 0.0
2014-Nov-14 21:28N 53°30' E 009°57'0 0.0
2014-Nov-14 20:31N 53°30' E 009°57'0 0.0
2014-Nov-14 19:31N 53°30' E 009°57'0 0.0
2014-Nov-14 18:34N 53°30' E 009°57'7 6.9
2014-Nov-14 17:33N 53°33' E 009°47'1212.1
2014-Nov-14 16:33N 53°40' E 009°30'1313.0
2014-Nov-14 15:33N 53°51' E 009°18'1211.9
2014-Nov-14 14:33N 53°51' E 008°58'2211.2
2014-Nov-14 12:33N 53°59' E 008°23'1110.9
2014-Nov-14 11:32N 53°59' E 008°04'1111.1
2014-Nov-14 10:33N 53°56' E 007°46'3410.0
2014-Nov-14 07:08N 53°48' E 006°49'25 9.7
2014-Nov-14 04:31N 53°42' E 006°08'1010.4
2014-Nov-14 03:33N 53°38' E 005°52'1110.9
2014-Nov-14 02:33N 53°35' E 005°34'1111.2
2014-Nov-14 01:33N 53°32' E 005°16'1211.6
2014-Nov-14 00:33N 53°27' E 004°58'2511.7
2014-Nov-13 22:27N 53°09' E 004°31'1112.3
2014-Nov-13 21:33N 52°59' E 004°21'1312.5
2014-Nov-13 20:33N 52°48' E 004°12'1212.1
2014-Nov-13 19:33N 52°39' E 003°59'1312.4
2014-Nov-13 18:29N 52°26' E 003°54'1112.4
2014-Nov-13 17:33N 52°15' E 003°53'1212.1
2014-Nov-13 16:33N 52°03' E 003°55'1212.3
2014-Nov-13 15:33N 51°56' E 004°12'1111.1
2014-Nov-13 14:33N 51°50' E 004°27'9 9.4
2014-Nov-13 13:33N 51°43' E 004°37'2 1.8
2014-Nov-13 12:33N 51°42' E 004°35'0 0.0
2014-Nov-13 11:30N 51°42' E 004°35'0 0.0
2014-Nov-13 10:33N 51°42' E 004°35'0 0.0
2014-Nov-13 09:33N 51°42' E 004°35'0 0.0
2014-Nov-13 08:30N 51°42' E 004°35'0 0.0
2014-Nov-13 07:33N 51°42' E 004°35'0 0.0
2014-Nov-13 06:33N 51°42' E 004°35'0 0.0
2014-Nov-13 05:33N 51°42' E 004°35'0 0.0
2014-Nov-13 04:30N 51°42' E 004°35'0 0.0
2014-Nov-13 03:33N 51°42' E 004°35'0 0.0
2014-Nov-13 02:30N 51°42' E 004°35'0 0.0
2014-Nov-13 01:33N 51°42' E 004°35'0 0.0
2014-Nov-13 00:27N 51°42' E 004°35'0 0.0
2014-Nov-12 23:33N 51°42' E 004°35'0 0.0
2014-Nov-12 22:33N 51°42' E 004°35'0 0.0
2014-Nov-12 21:33N 51°42' E 004°35'0 0.0
2014-Nov-12 20:30N 51°42' E 004°35'0 0.0
2014-Nov-12 19:24N 51°42' E 004°35'0 0.0
2014-Nov-12 18:30N 51°42' E 004°35'0 0.0
2014-Nov-12 17:33N 51°42' E 004°35'0 0.0
2014-Nov-12 16:33N 51°42' E 004°35'0 0.0
2014-Nov-12 15:33N 51°42' E 004°35'0 0.0
2014-Nov-12 14:30N 51°42' E 004°35'0 0.0
2014-Nov-12 13:33N 51°42' E 004°35'0 0.0
2014-Nov-12 12:30N 51°42' E 004°35'0 0.0
2014-Nov-12 11:33N 51°42' E 004°35'0 0.0
2014-Nov-12 10:30N 51°42' E 004°35'  

Dump ship's entire track history